createdAt,value
2022-08-09T00:00:23.281Z,101363.59
2022-08-09T00:02:52.405Z,101379.03
2022-08-09T00:06:16.382Z,101370.81
2022-08-09T00:08:31.524Z,101373.03
2022-08-09T00:10:59.844Z,101370.81
2022-08-09T00:13:28.467Z,101369.91
2022-08-09T00:16:02.737Z,101372.19
2022-08-09T00:18:34.872Z,101371.75
2022-08-09T00:21:07.685Z,101372.13
2022-08-09T00:23:58.311Z,101372.41
2022-08-09T00:26:30.013Z,101368.38
2022-08-09T00:29:01.699Z,101373.47
2022-08-09T00:31:59.431Z,101378.50
2022-08-09T00:34:19.725Z,101377.31
2022-08-09T00:36:48.912Z,101372.19
2022-08-09T00:40:08.937Z,101376.88
2022-08-09T00:44:15.310Z,101375.97
2022-08-09T00:44:57.675Z,101372.41
2022-08-09T00:47:26.381Z,101370.34
2022-08-09T00:50:01.333Z,101376.72
2022-08-09T00:52:31.195Z,101369.63
2022-08-09T00:55:04.436Z,101375.16
2022-08-09T00:57:34.343Z,101381.28
2022-08-09T01:00:22.149Z,101376.97
2022-08-09T01:02:55.459Z,101378.34
2022-08-09T01:05:46.403Z,101375.28
2022-08-09T01:08:26.616Z,101380.72
2022-08-09T01:11:08.560Z,101380.72
2022-08-09T01:13:59.494Z,101372.19
2022-08-09T01:16:47.049Z,101382.72
2022-08-09T01:19:40.051Z,101370.13
2022-08-09T01:22:37.655Z,101373.69
2022-08-09T01:25:19.322Z,101367.78
2022-08-09T01:27:54.245Z,101370.13
2022-08-09T01:30:28.876Z,101375.84
2022-08-09T01:33:10.100Z,101368.50
2022-08-09T01:35:43.144Z,101376.97
2022-08-09T01:38:16.444Z,101382.47
2022-08-09T01:40:53.134Z,101385.50
2022-08-09T01:43:50.925Z,101380.66
2022-08-09T01:46:25.286Z,101381.00
2022-08-09T01:49:00.238Z,101384.91
2022-08-09T01:51:42.832Z,101387.09
2022-08-09T01:54:14.716Z,101386.00
2022-08-09T01:56:51.399Z,101386.00
2022-08-09T01:59:23.422Z,101388.19
2022-08-09T02:01:58.040Z,101382.56
2022-08-09T02:04:28.990Z,101381.47
2022-08-09T02:07:17.957Z,101390.88
2022-08-09T02:10:05.170Z,101390.63
2022-08-09T02:12:35.848Z,101393.06
2022-08-09T02:15:08.239Z,101399.19
2022-08-09T02:18:09.923Z,101397.44
2022-08-09T02:20:34.062Z,101403.91
2022-08-09T02:23:07.404Z,101402.63
2022-08-09T02:25:42.731Z,101407.13
2022-08-09T02:28:21.221Z,101407.00
2022-08-09T02:30:59.561Z,101410.69
2022-08-09T02:33:58.333Z,101406.00
2022-08-09T02:36:27.847Z,101416.75
2022-08-09T02:38:59.309Z,101410.78
2022-08-09T02:41:33.674Z,101418.22
2022-08-09T02:44:06.634Z,101412.56
2022-08-09T02:46:45.220Z,101421.59
2022-08-09T02:49:16.806Z,101411.81
2022-08-09T02:51:48.514Z,101414.62
2022-08-09T02:54:18.982Z,101409.72
2022-08-09T02:56:51.543Z,101410.81
2022-08-09T02:59:36.589Z,101410.56
2022-08-09T03:02:12.248Z,101414.09
2022-08-09T03:04:47.005Z,101417.03
2022-08-09T03:07:20.103Z,101422.72
2022-08-09T03:09:54.283Z,101420.16
2022-08-09T03:12:27.069Z,101420.28
2022-08-09T03:14:56.059Z,101424.69
2022-08-09T03:17:27.199Z,101420.53
2022-08-09T03:20:05.127Z,101426.09
2022-08-09T03:22:44.641Z,101423.31
2022-08-09T03:25:25.930Z,101426.22
2022-08-09T03:28:05.093Z,101422.78
2022-08-09T03:30:40.148Z,101422.91
2022-08-09T03:33:18.880Z,101428.28
2022-08-09T03:36:13.618Z,101431.94
2022-08-09T03:38:41.815Z,101437.50
2022-08-09T03:41:15.094Z,101440.19
2022-08-09T03:44:03.441Z,101445.69
2022-08-09T03:46:34.237Z,101446.53
2022-08-09T03:49:07.991Z,101444.81
2022-08-09T03:51:57.792Z,101450.19
2022-08-09T03:54:31.270Z,101456.41
2022-08-09T03:57:02.221Z,101448.25
2022-08-09T03:59:52.875Z,101452.75
2022-08-09T04:02:26.588Z,101448.34
2022-08-09T04:04:58.693Z,101453.84
2022-08-09T04:07:47.925Z,101460.72
2022-08-09T04:10:20.421Z,101463.91
2022-08-09T04:12:51.048Z,101467.56
2022-08-09T04:15:50.384Z,101458.88
2022-08-09T04:18:18.063Z,101458.88
2022-08-09T04:20:48.945Z,101460.78
2022-08-09T04:23:17.873Z,101461.50
2022-08-09T04:25:53.075Z,101469.22
2022-08-09T04:28:32.943Z,101472.88
2022-08-09T04:31:07.636Z,101469.09
2022-08-09T04:33:52.038Z,101465.47
2022-08-09T04:36:27.968Z,101465.22
2022-08-09T04:38:57.594Z,101465.97
2022-08-09T04:41:32.881Z,101474.13
2022-08-09T04:44:06.380Z,101481.81
2022-08-09T04:46:56.735Z,101482.69
2022-08-09T04:49:40.309Z,101482.50
2022-08-09T04:52:27.321Z,101483.16
2022-08-09T04:54:56.125Z,101486.12
2022-08-09T04:57:25.172Z,101496.62
2022-08-09T04:59:55.566Z,101498.50
2022-08-09T05:02:27.080Z,101504.31
2022-08-09T05:04:56.224Z,101505.34
2022-08-09T05:07:29.326Z,101504.41
2022-08-09T05:10:01.628Z,101507.94
2022-08-09T05:12:31.185Z,101512.97
2022-08-09T05:15:11.628Z,101509.88
2022-08-09T05:18:55.041Z,101508.66
2022-08-09T05:20:30.615Z,101514.87
2022-08-09T05:23:54.786Z,101511.63
2022-08-09T05:25:50.632Z,101507.38
2022-08-09T05:28:20.130Z,101520.44
2022-08-09T05:30:51.614Z,101520.34
2022-08-09T05:33:26.382Z,101514.06
2022-08-09T05:36:02.096Z,101518.59
2022-08-09T05:38:31.467Z,101524.47
2022-08-09T05:40:59.529Z,101518.63
2022-08-09T05:43:31.736Z,101527.22
2022-08-09T05:45:59.884Z,101525.16
2022-08-09T05:48:33.154Z,101525.25
2022-08-09T05:51:43.141Z,101523.19
2022-08-09T05:53:57.641Z,101526.34
2022-08-09T05:56:28.018Z,101526.91
2022-08-09T05:58:58.559Z,101535.88
2022-08-09T06:01:33.703Z,101526.78
2022-08-09T06:04:12.252Z,101532.53
2022-08-09T06:06:45.242Z,101535.41
2022-08-09T06:09:41.127Z,101533.44
2022-08-09T06:12:08.629Z,101544.22
2022-08-09T06:14:37.267Z,101549.34
2022-08-09T06:17:09.404Z,101545.28
2022-08-09T06:19:38.724Z,101549.31
2022-08-09T06:22:15.220Z,101558.81
2022-08-09T06:24:45.162Z,101555.44
2022-08-09T06:27:15.577Z,101558.44
2022-08-09T06:29:47.973Z,101555.66
2022-08-09T06:33:13.046Z,101551.63
2022-08-09T06:35:15.172Z,101556.28
2022-08-09T06:37:52.859Z,101558.19
2022-08-09T06:40:33.371Z,101570.59
2022-08-09T06:43:02.152Z,101569.75
2022-08-09T06:46:07.589Z,101570.62
2022-08-09T06:48:30.739Z,101569.66
2022-08-09T06:50:59.937Z,101577.78
2022-08-09T06:53:33.164Z,101578.06
2022-08-09T06:56:09.058Z,101579.66
2022-08-09T07:00:47.193Z,101579.66
2022-08-09T07:01:27.546Z,101578.66
2022-08-09T07:04:04.400Z,101574.09
2022-08-09T07:06:33.039Z,101572.63
2022-08-09T07:09:02.534Z,101572.22
2022-08-09T07:11:34.203Z,101573.66
2022-08-09T07:14:17.885Z,101580.34
2022-08-09T07:16:58.330Z,101571.75
2022-08-09T07:19:27.287Z,101579.00
2022-08-09T07:21:59.089Z,101574.56
2022-08-09T07:24:40.117Z,101578.94
2022-08-09T07:27:27.194Z,101576.03
2022-08-09T07:30:02.560Z,101582.78
2022-08-09T07:32:34.295Z,101579.91
2022-08-09T07:35:08.154Z,101578.78
2022-08-09T07:37:43.812Z,101576.63
2022-08-09T07:40:17.070Z,101580.44
2022-08-09T07:42:55.742Z,101579.25
2022-08-09T07:45:40.118Z,101572.91
2022-08-09T07:48:25.742Z,101571.97
2022-08-09T07:51:10.172Z,101573.19
2022-08-09T07:54:05.929Z,101573.84
2022-08-09T07:56:36.984Z,101576.34
2022-08-09T07:59:12.599Z,101574.75
2022-08-09T08:01:52.828Z,101568.53
2022-08-09T08:04:25.499Z,101579.69
2022-08-09T08:07:09.483Z,101577.53
2022-08-09T08:09:53.616Z,101573.81
2022-08-09T08:12:35.903Z,101571.38
2022-08-09T08:15:07.713Z,101570.06
2022-08-09T08:17:53.437Z,101576.56
2022-08-09T08:20:29.124Z,101575.03
2022-08-09T08:23:06.536Z,101577.06
2022-08-09T08:25:46.501Z,101580.28
2022-08-09T08:28:18.043Z,101578.25
2022-08-09T08:30:55.893Z,101577.25
2022-08-09T08:33:24.735Z,101574.03
2022-08-09T08:36:00.137Z,101570.09
2022-08-09T08:38:29.629Z,101573.31
2022-08-09T08:40:58.762Z,101575.91
2022-08-09T08:43:27.677Z,101577.06
2022-08-09T08:46:31.789Z,101582.69
2022-08-09T08:48:54.107Z,101583.03
2022-08-09T08:51:23.471Z,101580.62
2022-08-09T08:54:03.320Z,101578.91
2022-08-09T08:56:36.002Z,101583.63
2022-08-09T08:59:19.372Z,101585.16
2022-08-09T09:01:52.971Z,101578.00
2022-08-09T09:04:29.740Z,101584.16
2022-08-09T09:07:04.110Z,101584.06
2022-08-09T09:10:02.269Z,101581.16
2022-08-09T09:12:29.127Z,101581.38
2022-08-09T09:15:00.263Z,101588.19
2022-08-09T09:17:30.775Z,101582.03
2022-08-09T09:20:16.882Z,101593.19
2022-08-09T09:22:52.879Z,101587.03
2022-08-09T09:26:03.807Z,101589.81
2022-08-09T09:29:02.113Z,101584.16
2022-08-09T09:32:05.971Z,101584.66
2022-08-09T09:34:15.364Z,101581.63
2022-08-09T09:36:54.232Z,101579.09
2022-08-09T09:39:25.604Z,101568.38
2022-08-09T09:42:23.355Z,101575.78
2022-08-09T09:44:57.562Z,101571.63
2022-08-09T09:47:26.522Z,101566.63
2022-08-09T09:50:13.598Z,101563.25
2022-08-09T09:52:53.687Z,101568.63
2022-08-09T09:55:31.238Z,101560.41
2022-08-09T09:58:19.085Z,101566.16
2022-08-09T10:00:54.520Z,101563.75
2022-08-09T10:03:44.831Z,101560.22
2022-08-09T10:06:27.390Z,101561.28
2022-08-09T10:09:02.661Z,101560.94
2022-08-09T10:11:58.972Z,101564.91
2022-08-09T10:14:30.952Z,101563.78
2022-08-09T10:17:55.180Z,101554.56
2022-08-09T10:19:59.933Z,101554.91
2022-08-09T10:22:34.632Z,101545.94
2022-08-09T10:25:11.180Z,101546.84
2022-08-09T10:27:56.355Z,101549.22
2022-08-09T10:34:07.911Z,101543.59
2022-08-09T10:36:05.116Z,101537.63
2022-08-09T10:38:56.051Z,101538.53
2022-08-09T10:41:23.076Z,101538.16
2022-08-09T10:43:59.444Z,101534.75
2022-08-09T10:48:12.164Z,101536.91
2022-08-09T10:50:05.644Z,101535.44
2022-08-09T10:53:04.074Z,101535.00
2022-08-09T10:55:58.602Z,101530.53
2022-08-09T10:58:33.504Z,101527.56
2022-08-09T11:03:15.454Z,101524.56
2022-08-09T11:04:19.422Z,101523.69
2022-08-09T11:07:27.150Z,101524.09
2022-08-09T11:10:15.828Z,101523.25
2022-08-09T11:13:49.328Z,101515.84
2022-08-09T11:16:33.811Z,101517.50
2022-08-09T11:19:08.000Z,101523.22
2022-08-09T11:22:10.204Z,101513.09
2022-08-09T11:25:08.945Z,101516.47
2022-08-09T11:28:05.434Z,101510.84
2022-08-09T11:30:37.738Z,101510.69
2022-08-09T11:33:12.915Z,101515.37
2022-08-09T11:35:49.698Z,101509.22
2022-08-09T11:38:28.850Z,101504.50
2022-08-09T11:41:05.258Z,101506.88
2022-08-09T11:43:41.465Z,101506.69
2022-08-09T11:46:11.172Z,101509.03
2022-08-09T11:48:50.066Z,101514.91
2022-08-09T11:52:49.501Z,101504.94
2022-08-09T11:54:28.965Z,101508.09
2022-08-09T11:57:47.841Z,101508.53
2022-08-09T12:00:29.426Z,101505.59
2022-08-09T12:03:50.715Z,101505.38
2022-08-09T12:05:52.063Z,101503.94
2022-08-09T12:08:23.564Z,101493.75
2022-08-09T12:10:55.901Z,101500.84
2022-08-09T12:14:09.347Z,101502.03
2022-08-09T12:16:37.447Z,101501.87
2022-08-09T12:19:09.952Z,101504.72
2022-08-09T12:21:50.225Z,101500.94
2022-08-09T12:24:24.500Z,101499.03
2022-08-09T12:29:11.408Z,101494.63
2022-08-09T12:30:01.946Z,101496.75
2022-08-09T12:32:42.825Z,101500.34
2022-08-09T12:35:19.147Z,101495.72
2022-08-09T12:37:51.971Z,101496.72
2022-08-09T12:40:24.456Z,101492.09
2022-08-09T12:42:53.248Z,101482.38
2022-08-09T12:45:32.604Z,101485.53
2022-08-09T12:48:03.507Z,101487.41
2022-08-09T12:50:35.612Z,101485.25
2022-08-09T12:53:18.053Z,101481.91
2022-08-09T12:56:15.703Z,101480.66
2022-08-09T12:58:43.011Z,101485.72
2022-08-09T13:01:23.117Z,101481.06
2022-08-09T13:04:01.898Z,101483.59
2022-08-09T13:06:35.655Z,101477.03
2022-08-09T13:09:07.137Z,101470.50
2022-08-09T13:11:39.593Z,101471.78
2022-08-09T13:14:43.838Z,101465.38
2022-08-09T13:17:08.530Z,101465.13
2022-08-09T13:20:07.541Z,101462.31
2022-08-09T13:22:38.239Z,101461.59
2022-08-09T13:25:16.463Z,101457.22
2022-08-09T13:27:55.289Z,101456.69
2022-08-09T13:32:12.203Z,101458.22
2022-08-09T13:33:23.672Z,101449.28
2022-08-09T13:36:37.553Z,101457.63
2022-08-09T13:38:55.001Z,101459.00
2022-08-09T13:41:58.144Z,101468.78
2022-08-09T13:44:16.443Z,101455.44
2022-08-09T13:47:27.490Z,101460.00
2022-08-09T13:49:39.490Z,101450.59
2022-08-09T13:52:22.095Z,101460.41
2022-08-09T13:55:00.156Z,101459.25
2022-08-09T13:57:36.538Z,101461.59
2022-08-09T14:00:15.848Z,101461.97
2022-08-09T14:03:04.013Z,101462.84
2022-08-09T14:06:01.185Z,101465.59
2022-08-09T14:08:24.753Z,101467.00
2022-08-09T14:10:57.343Z,101458.38
2022-08-09T14:13:28.107Z,101460.72
2022-08-09T14:16:16.078Z,101457.53
2022-08-09T14:18:49.630Z,101448.59
2022-08-09T14:21:20.373Z,101444.78
2022-08-09T14:23:53.885Z,101453.63
2022-08-09T14:26:30.161Z,101439.03
2022-08-09T14:29:03.136Z,101446.13
2022-08-09T14:31:36.192Z,101443.13
2022-08-09T14:34:27.295Z,101450.56
2022-08-09T14:36:59.967Z,101442.66
2022-08-09T14:39:45.260Z,101441.47
2022-08-09T14:42:40.521Z,101440.34
2022-08-09T14:46:58.274Z,101448.25
2022-08-09T14:47:58.297Z,101442.84
2022-08-09T14:50:30.379Z,101438.41
2022-08-09T14:52:59.165Z,101443.31
2022-08-09T14:55:32.251Z,101443.91
2022-08-09T14:58:04.788Z,101437.28
2022-08-09T15:00:36.385Z,101433.87
2022-08-09T15:03:06.798Z,101435.16
2022-08-09T15:05:36.480Z,101433.75
2022-08-09T15:08:05.143Z,101442.91
2022-08-09T15:10:34.917Z,101441.41
2022-08-09T15:13:08.686Z,101432.59
2022-08-09T15:15:38.940Z,101432.94
2022-08-09T15:18:14.151Z,101442.06
2022-08-09T15:21:56.915Z,101440.22
2022-08-09T15:24:03.723Z,101436.13
2022-08-09T15:26:31.769Z,101423.97
2022-08-09T15:29:04.764Z,101425.16
2022-08-09T15:31:40.678Z,101425.53
2022-08-09T15:34:32.123Z,101427.22
2022-08-09T15:37:00.069Z,101417.78
2022-08-09T15:39:43.708Z,101413.16
2022-08-09T15:42:19.974Z,101420.44
2022-08-09T15:44:51.719Z,101418.19
2022-08-09T15:47:22.602Z,101422.06
2022-08-09T15:50:04.511Z,101423.00
2022-08-09T15:52:35.344Z,101423.25
2022-08-09T15:55:05.524Z,101420.78
2022-08-09T15:57:43.858Z,101417.84
2022-08-09T16:00:24.447Z,101427.59
2022-08-09T16:02:56.443Z,101428.34
2022-08-09T16:05:47.840Z,101418.44
2022-08-09T16:08:30.957Z,101420.37
2022-08-09T16:11:00.259Z,101409.94
2022-08-09T16:14:04.596Z,101417.16
2022-08-09T16:16:19.842Z,101422.03
2022-08-09T16:18:48.204Z,101412.56
2022-08-09T16:21:25.076Z,101408.59
2022-08-09T16:23:58.374Z,101408.69
2022-08-09T16:26:34.871Z,101416.63
2022-08-09T16:29:10.621Z,101406.03
2022-08-09T16:32:18.258Z,101407.41
2022-08-09T16:34:56.011Z,101411.16
2022-08-09T16:37:20.370Z,101406.56
2022-08-09T16:40:10.116Z,101406.50
2022-08-09T16:42:38.693Z,101404.00
2022-08-09T16:45:14.785Z,101402.94
2022-08-09T16:48:43.054Z,101405.97
2022-08-09T16:50:38.186Z,101411.31
2022-08-09T16:53:08.913Z,101404.50
2022-08-09T16:55:58.715Z,101401.22
2022-08-09T16:58:27.944Z,101398.25
2022-08-09T17:00:56.168Z,101400.41
2022-08-09T17:03:25.529Z,101395.16
2022-08-09T17:06:03.422Z,101395.59
2022-08-09T17:08:45.725Z,101398.38
2022-08-09T17:11:40.167Z,101397.84
2022-08-09T17:14:26.238Z,101398.12
2022-08-09T17:16:59.826Z,101394.31
2022-08-09T17:20:04.969Z,101399.50
2022-08-09T17:22:25.195Z,101393.09
2022-08-09T17:25:03.665Z,101403.84
2022-08-09T17:27:33.333Z,101398.75
2022-08-09T17:30:06.625Z,101395.12
2022-08-09T17:32:38.590Z,101399.06
2022-08-09T17:35:12.419Z,101400.31
2022-08-09T17:38:12.141Z,101406.06
2022-08-09T17:40:33.973Z,101409.03
2022-08-09T17:43:10.567Z,101408.00
2022-08-09T17:46:03.416Z,101410.59
2022-08-09T17:48:35.085Z,101419.66
2022-08-09T17:51:18.181Z,101419.91
2022-08-09T17:53:51.846Z,101411.84
2022-08-09T17:56:27.620Z,101411.94
2022-08-09T17:59:03.404Z,101415.78
2022-08-09T18:02:03.814Z,101413.22
2022-08-09T18:04:28.394Z,101420.56
2022-08-09T18:06:58.828Z,101412.38
2022-08-09T18:09:40.593Z,101416.03
2022-08-09T18:12:17.115Z,101415.03
2022-08-09T18:14:49.641Z,101418.25
2022-08-09T18:18:02.628Z,101416.47
2022-08-09T18:20:55.073Z,101418.81
2022-08-09T18:22:57.351Z,101426.66
2022-08-09T18:25:51.021Z,101424.53
2022-08-09T18:28:21.434Z,101426.31
2022-08-09T18:31:04.753Z,101434.28
2022-08-09T18:33:34.262Z,101421.19
2022-08-09T18:36:02.351Z,101430.25
2022-08-09T18:38:31.556Z,101432.16
2022-08-09T18:40:59.640Z,101434.78
2022-08-09T18:43:28.016Z,101433.22
2022-08-09T18:46:47.437Z,101435.56
2022-08-09T18:48:52.838Z,101437.25
2022-08-09T18:51:21.128Z,101443.69
2022-08-09T18:54:16.573Z,101440.03
2022-08-09T18:56:53.970Z,101443.72
2022-08-09T18:59:23.298Z,101447.25
2022-08-09T19:01:54.993Z,101457.37
2022-08-09T19:04:24.873Z,101464.94
2022-08-09T19:07:05.456Z,101466.53
2022-08-09T19:10:14.868Z,101474.09
2022-08-09T19:12:23.357Z,101466.59
2022-08-09T19:14:51.754Z,101475.47
2022-08-09T19:17:19.915Z,101472.44
2022-08-09T19:19:49.446Z,101480.09
2022-08-09T19:22:26.669Z,101475.72
2022-08-09T19:25:09.727Z,101479.91
2022-08-09T19:27:44.068Z,101486.38
2022-08-09T19:30:22.116Z,101486.88
2022-08-09T19:32:56.597Z,101486.19
2022-08-09T19:35:26.665Z,101485.13
2022-08-09T19:37:57.420Z,101495.84
2022-08-09T19:40:34.139Z,101490.38
2022-08-09T19:43:09.954Z,101494.91
2022-08-09T19:45:44.523Z,101494.37
2022-08-09T19:48:15.170Z,101494.84
2022-08-09T19:51:03.358Z,101492.25
2022-08-09T19:53:45.259Z,101492.53
2022-08-09T19:56:17.012Z,101499.13
2022-08-09T19:59:40.051Z,101497.69
2022-08-09T20:01:52.395Z,101496.72
2022-08-09T20:04:37.336Z,101493.94
2022-08-09T20:07:12.210Z,101502.22
2022-08-09T20:09:49.579Z,101497.41
2022-08-09T20:12:27.220Z,101504.31
2022-08-09T20:16:31.596Z,101502.78
2022-08-09T20:17:59.093Z,101504.78
2022-08-09T20:20:27.347Z,101503.88
2022-08-09T20:22:56.593Z,101503.63
2022-08-09T20:25:25.370Z,101502.16
2022-08-09T20:27:55.755Z,101502.53
2022-08-09T20:30:25.094Z,101500.75
2022-08-09T20:32:53.941Z,101499.81
2022-08-09T20:35:22.295Z,101501.31
2022-08-09T20:38:19.324Z,101502.22
2022-08-09T20:40:41.145Z,101498.00
2022-08-09T20:43:24.314Z,101501.91
2022-08-09T20:45:59.049Z,101507.50
2022-08-09T20:48:31.506Z,101502.00
2022-08-09T20:51:00.893Z,101502.59
2022-08-09T20:53:37.318Z,101501.75
2022-08-09T20:56:09.412Z,101516.41
2022-08-09T20:58:54.483Z,101507.06
2022-08-09T21:01:35.146Z,101508.22
2022-08-09T21:05:55.005Z,101507.09
2022-08-09T21:07:11.834Z,101511.09
2022-08-09T21:09:55.474Z,101508.28
2022-08-09T21:15:16.013Z,101516.09
2022-08-09T21:18:23.529Z,101518.25
2022-08-09T21:20:35.565Z,101524.94
2022-08-09T21:23:04.369Z,101529.94
2022-08-09T21:25:56.245Z,101531.06
2022-08-09T21:28:35.254Z,101526.81
2022-08-09T21:31:17.368Z,101525.25
2022-08-09T21:33:51.558Z,101527.41
2022-08-09T21:36:23.292Z,101518.72
2022-08-09T21:38:57.214Z,101516.16
2022-08-09T21:42:00.356Z,101525.41
2022-08-09T21:44:15.275Z,101523.28
2022-08-09T21:47:01.963Z,101518.31
2022-08-09T21:49:40.218Z,101534.09
2022-08-09T21:52:16.297Z,101528.44
2022-08-09T21:54:50.685Z,101527.53
2022-08-09T21:57:39.096Z,101523.03
2022-08-09T22:00:17.841Z,101525.84
2022-08-09T22:02:58.247Z,101520.88
2022-08-09T22:05:35.728Z,101528.84
2022-08-09T22:08:06.560Z,101526.53
2022-08-09T22:10:35.918Z,101524.81
2022-08-09T22:13:25.489Z,101524.53
2022-08-09T22:16:03.532Z,101528.50
2022-08-09T22:18:33.454Z,101529.63
2022-08-09T22:21:01.527Z,101531.91
2022-08-09T22:23:35.490Z,101539.72
2022-08-09T22:26:12.735Z,101535.31
2022-08-09T22:28:54.150Z,101531.03
2022-08-09T22:31:22.556Z,101529.03
2022-08-09T22:33:55.335Z,101542.34
2022-08-09T22:36:24.069Z,101536.66
2022-08-09T22:38:51.929Z,101540.66
2022-08-09T22:41:20.220Z,101536.56
2022-08-09T22:44:03.727Z,101535.13
2022-08-09T22:48:10.776Z,101541.66
2022-08-09T22:49:23.472Z,101540.69
2022-08-09T22:51:57.181Z,101543.66
2022-08-09T22:54:27.456Z,101537.28
2022-08-09T22:56:57.085Z,101546.50
2022-08-09T22:59:58.289Z,101548.75
2022-08-09T23:02:15.615Z,101545.75
2022-08-09T23:04:54.295Z,101552.59
2022-08-09T23:08:23.017Z,101557.09
2022-08-09T23:10:29.688Z,101552.06
2022-08-09T23:13:01.002Z,101549.22
2022-08-09T23:15:30.511Z,101542.22
2022-08-09T23:17:58.656Z,101553.00
2022-08-09T23:20:28.771Z,101549.59
2022-08-09T23:22:57.115Z,101550.72
2022-08-09T23:25:25.014Z,101550.72
2022-08-09T23:28:14.246Z,101547.31
2022-08-09T23:30:41.207Z,101551.25
2022-08-09T23:33:19.654Z,101544.81
2022-08-09T23:36:05.683Z,101543.25
2022-08-09T23:38:35.919Z,101542.91
2022-08-09T23:41:27.870Z,101542.63
2022-08-09T23:43:58.396Z,101544.84
2022-08-09T23:46:26.895Z,101543.41
2022-08-09T23:48:54.746Z,101542.69
2022-08-09T23:51:23.952Z,101546.91
2022-08-09T23:53:52.514Z,101552.94
2022-08-09T23:56:52.324Z,101541.59
2022-08-09T23:59:11.963Z,101547.97
